sensor_id;sensor_type;location;lat;lon;timestamp;pressure;altitude;pressure_sealevel;temperature;humidity
27958;BME280;15295;42.658;23.374;2023-03-12T07:06:59;94062.34;;;9.30;34.73
27958;BME280;15295;42.658;23.374;2023-03-12T07:12:24;94101.13;;;9.52;34.48
27958;BME280;15295;42.658;23.374;2023-03-12T07:15:12;94106.13;;;9.60;34.36
27958;BME280;15295;42.658;23.374;2023-03-12T07:17:42;94032.88;;;9.59;33.26
27958;BME280;15295;42.658;23.374;2023-03-12T07:30:28;94119.31;;;11.41;30.76
27958;BME280;15295;42.658;23.374;2023-03-12T07:33:36;94082.88;;;11.21;30.40
27958;BME280;15295;42.658;23.374;2023-03-12T07:41:18;94137.31;;;12.38;32.35
27958;BME280;15295;42.658;23.374;2023-03-12T07:44:04;94064.50;;;12.17;29.80
27958;BME280;15295;42.658;23.374;2023-03-12T08:07:34;94158.66;;;12.70;27.88
27958;BME280;15295;42.658;23.374;2023-03-12T08:10:11;94165.00;;;12.44;27.78
27958;BME280;15295;42.658;23.374;2023-03-12T08:12:57;94110.72;;;11.92;27.78
27958;BME280;15295;42.658;23.374;2023-03-12T08:15:27;94106.66;;;11.77;28.16
27958;BME280;15295;42.658;23.374;2023-03-12T08:17:55;94184.59;;;12.19;28.92
27958;BME280;15295;42.658;23.374;2023-03-12T08:20:21;94159.34;;;11.85;27.63
27958;BME280;15295;42.658;23.374;2023-03-12T08:22:46;94176.53;;;11.85;27.73
27958;BME280;15295;42.658;23.374;2023-03-12T08:25:12;94161.41;;;11.77;28.13
27958;BME280;15295;42.658;23.374;2023-03-12T08:27:37;94192.63;;;12.06;28.11
27958;BME280;15295;42.658;23.374;2023-03-12T08:30:05;94176.75;;;11.71;28.45
27958;BME280;15295;42.658;23.374;2023-03-12T08:32:32;94193.56;;;11.73;28.64
27958;BME280;15295;42.658;23.374;2023-03-12T08:34:59;94207.19;;;11.46;28.77
27958;BME280;15295;42.658;23.374;2023-03-12T08:37:25;94195.88;;;11.44;29.12
27958;BME280;15295;42.658;23.374;2023-03-12T08:39:52;94194.00;;;11.68;29.02
27958;BME280;15295;42.658;23.374;2023-03-12T08:42:17;94202.69;;;11.90;28.87
27958;BME280;15295;42.658;23.374;2023-03-12T08:44:42;94202.41;;;12.07;27.95
27958;BME280;15295;42.658;23.374;2023-03-12T08:47:08;94211.25;;;12.42;28.32
27958;BME280;15295;42.658;23.374;2023-03-12T08:49:36;94191.94;;;12.49;27.51
27958;BME280;15295;42.658;23.374;2023-03-12T08:52:25;94202.84;;;12.52;27.50
27958;BME280;15295;42.658;23.374;2023-03-12T08:54:53;94212.97;;;12.55;27.08
27958;BME280;15295;42.658;23.374;2023-03-12T08:57:20;94181.56;;;12.13;28.10
27958;BME280;15295;42.658;23.374;2023-03-12T08:59:47;94160.53;;;12.07;27.15
27958;BME280;15295;42.658;23.374;2023-03-12T09:02:25;94176.59;;;12.74;28.38
27958;BME280;15295;42.658;23.374;2023-03-12T09:04:55;94208.97;;;13.42;28.04
27958;BME280;15295;42.658;23.374;2023-03-12T09:07:32;94168.16;;;13.24;26.52
27958;BME280;15295;42.658;23.374;2023-03-12T09:10:03;94201.03;;;13.08;27.42
27958;BME280;15295;42.658;23.374;2023-03-12T09:12:33;94198.53;;;12.94;26.63
27958;BME280;15295;42.658;23.374;2023-03-12T09:15:00;94160.28;;;12.67;27.18
27958;BME280;15295;42.658;23.374;2023-03-12T09:17:28;94188.19;;;12.82;26.41
27958;BME280;15295;42.658;23.374;2023-03-12T09:19:55;94213.53;;;12.89;26.88
27958;BME280;15295;42.658;23.374;2023-03-12T09:22:21;94201.41;;;12.87;28.33
27958;BME280;15295;42.658;23.374;2023-03-12T09:45:52;94197.69;;;13.56;28.97
27958;BME280;15295;42.658;23.374;2023-03-12T09:50:52;94169.53;;;14.04;27.28
27958;BME280;15295;42.658;23.374;2023-03-12T09:53:36;94218.25;;;14.51;27.58
27958;BME280;15295;42.658;23.374;2023-03-12T09:56:16;94180.66;;;14.32;26.80
27958;BME280;15295;42.658;23.374;2023-03-12T09:58:47;94171.69;;;14.28;26.08
27958;BME280;15295;42.658;23.374;2023-03-12T10:01:56;94213.16;;;14.66;27.16
27958;BME280;15295;42.658;23.374;2023-03-12T10:04:32;94193.69;;;14.60;26.49
27958;BME280;15295;42.658;23.374;2023-03-12T10:07:51;94211.94;;;14.67;25.97
27958;BME280;15295;42.658;23.374;2023-03-12T10:11:12;94203.06;;;14.92;25.79
27958;BME280;15295;42.658;23.374;2023-03-12T11:04:51;94189.78;;;16.23;23.69
27958;BME280;15295;42.658;23.374;2023-03-12T11:10:49;94207.09;;;16.61;24.21
27958;BME280;15295;42.658;23.374;2023-03-12T11:16:01;94186.72;;;17.15;23.11
27958;BME280;15295;42.658;23.374;2023-03-12T11:18:37;94181.91;;;17.28;21.10
27958;BME280;15295;42.658;23.374;2023-03-12T11:21:14;94147.34;;;17.02;21.52
27958;BME280;15295;42.658;23.374;2023-03-12T11:23:46;94185.31;;;17.32;21.49
27958;BME280;15295;42.658;23.374;2023-03-12T11:26:18;94190.69;;;17.14;21.99
27958;BME280;15295;42.658;23.374;2023-03-12T11:28:50;94181.38;;;17.20;22.37
27958;BME280;15295;42.658;23.374;2023-03-12T11:31:24;94181.41;;;17.63;22.27
27958;BME280;15295;42.658;23.374;2023-03-12T11:36:50;94183.59;;;17.47;21.70
27958;BME280;15295;42.658;23.374;2023-03-12T11:39:28;94180.19;;;17.21;21.49
27958;BME280;15295;42.658;23.374;2023-03-12T11:58:00;94173.09;;;17.20;21.52
27958;BME280;15295;42.658;23.374;2023-03-12T12:00:54;94107.69;;;16.52;22.05
27958;BME280;15295;42.658;23.374;2023-03-12T12:03:43;94129.16;;;16.70;21.74
27958;BME280;15295;42.658;23.374;2023-03-12T12:06:47;94173.81;;;17.12;21.90
27958;BME280;15295;42.658;23.374;2023-03-12T12:19:09;94171.13;;;17.21;21.54
27958;BME280;15295;42.658;23.374;2023-03-12T12:31:19;94167.56;;;17.20;21.91
27958;BME280;15295;42.658;23.374;2023-03-12T12:40:24;94103.22;;;16.67;21.71
27958;BME280;15295;42.658;23.374;2023-03-12T12:43:31;94175.97;;;16.95;22.03
27958;BME280;15295;42.658;23.374;2023-03-12T12:46:24;94140.09;;;16.61;22.37
27958;BME280;15295;42.658;23.374;2023-03-12T12:49:35;94169.53;;;16.64;22.70
27958;BME280;15295;42.658;23.374;2023-03-12T12:52:14;94155.84;;;16.73;22.65
27958;BME280;15295;42.658;23.374;2023-03-12T12:55:05;94110.28;;;16.68;22.74
27958;BME280;15295;42.658;23.374;2023-03-12T12:57:41;94115.72;;;16.93;22.38
27958;BME280;15295;42.658;23.374;2023-03-12T13:00:46;94174.06;;;17.26;22.28
27958;BME280;15295;42.658;23.374;2023-03-12T13:03:20;94171.50;;;17.32;22.17
27958;BME280;15295;42.658;23.374;2023-03-12T13:06:01;94168.28;;;17.12;21.89
27958;BME280;15295;42.658;23.374;2023-03-12T13:08:35;94139.03;;;16.80;22.02
27958;BME280;15295;42.658;23.374;2023-03-12T13:13:48;94180.34;;;17.27;23.29
27958;BME280;15295;42.658;23.374;2023-03-12T13:18:58;94164.88;;;17.08;21.85
27958;BME280;15295;42.658;23.374;2023-03-12T13:27:28;94159.91;;;16.21;23.11
27958;BME280;15295;42.658;23.374;2023-03-12T13:29:57;94140.50;;;15.87;22.88
27958;BME280;15295;42.658;23.374;2023-03-12T13:38:00;94210.34;;;15.56;23.60
27958;BME280;15295;42.658;23.374;2023-03-12T13:41:02;94160.72;;;15.30;23.62
27958;BME280;15295;42.658;23.374;2023-03-12T13:43:46;94155.84;;;15.22;23.82
27958;BME280;15295;42.658;23.374;2023-03-12T13:46:28;94179.47;;;15.07;24.18
27958;BME280;15295;42.658;23.374;2023-03-12T13:49:04;94199.41;;;15.11;24.59
27958;BME280;15295;42.658;23.374;2023-03-12T13:51:59;94174.47;;;15.02;24.84
27958;BME280;15295;42.658;23.374;2023-03-12T14:12:05;94214.97;;;15.01;24.64
27958;BME280;15295;42.658;23.374;2023-03-12T14:17:23;94209.09;;;15.15;24.76
27958;BME280;15295;42.658;23.374;2023-03-12T14:20:19;94177.69;;;15.00;24.61
27958;BME280;15295;42.658;23.374;2023-03-12T14:22:59;94155.38;;;14.82;24.40
27958;BME280;15295;42.658;23.374;2023-03-12T14:28:21;94222.78;;;15.48;24.56
27958;BME280;15295;42.658;23.374;2023-03-12T14:31:11;94220.84;;;15.61;24.31
27958;BME280;15295;42.658;23.374;2023-03-12T14:34:05;94222.78;;;15.48;24.02
27958;BME280;15295;42.658;23.374;2023-03-12T14:36:57;94225.97;;;15.01;24.01
27958;BME280;15295;42.658;23.374;2023-03-12T14:39:38;94148.06;;;14.31;24.53
27958;BME280;15295;42.658;23.374;2023-03-12T14:42:09;94195.22;;;14.61;24.66
27958;BME280;15295;42.658;23.374;2023-03-12T14:44:37;94214.22;;;14.56;24.59
27958;BME280;15295;42.658;23.374;2023-03-12T14:47:09;94196.69;;;14.34;24.86
27958;BME280;15295;42.658;23.374;2023-03-12T14:49:56;94216.28;;;14.36;24.94
27958;BME280;15295;42.658;23.374;2023-03-12T14:59:32;94232.25;;;13.89;25.49
27958;BME280;15295;42.658;23.374;2023-03-12T15:02:17;94232.50;;;13.78;25.66
27958;BME280;15295;42.658;23.374;2023-03-12T15:05:00;94197.56;;;13.43;25.71
27958;BME280;15295;42.658;23.374;2023-03-12T15:20:17;94241.06;;;13.25;26.21
27958;BME280;15295;42.658;23.374;2023-03-12T15:22:44;94226.31;;;13.19;26.29
27958;BME280;15295;42.658;23.374;2023-03-12T15:25:29;94251.53;;;13.30;26.40
27958;BME280;15295;42.658;23.374;2023-03-12T15:28:23;94250.56;;;13.40;26.32
27958;BME280;15295;42.658;23.374;2023-03-12T15:34:01;94213.91;;;13.11;26.21
27958;BME280;15295;42.658;23.374;2023-03-12T15:37:18;94197.34;;;12.95;26.14
27958;BME280;15295;42.658;23.374;2023-03-12T15:40:23;94270.13;;;13.42;26.27
27958;BME280;15295;42.658;23.374;2023-03-12T15:43:19;94200.66;;;12.86;26.43
27958;BME280;15295;42.658;23.374;2023-03-12T16:03:19;94301.22;;;12.70;26.92
27958;BME280;15295;42.658;23.374;2023-03-12T16:08:22;94237.91;;;12.14;27.37
27958;BME280;15295;42.658;23.374;2023-03-12T16:10:59;94296.91;;;12.46;27.44
27958;BME280;15295;42.658;23.374;2023-03-12T16:13:28;94308.41;;;12.37;27.40
27958;BME280;15295;42.658;23.374;2023-03-12T16:21:49;94331.00;;;12.18;27.53
27958;BME280;15295;42.658;23.374;2023-03-12T16:24:16;94332.22;;;12.13;27.67
27958;BME280;15295;42.658;23.374;2023-03-12T16:27:02;94330.78;;;12.05;27.46
27958;BME280;15295;42.658;23.374;2023-03-12T16:35:16;94383.69;;;11.99;27.94
27958;BME280;15295;42.658;23.374;2023-03-12T16:37:47;94381.81;;;11.92;27.98
27958;BME280;15295;42.658;23.374;2023-03-12T16:40:14;94381.56;;;11.80;27.89
27958;BME280;15295;42.658;23.374;2023-03-12T16:43:00;94403.13;;;11.74;27.83
27958;BME280;15295;42.658;23.374;2023-03-12T16:45:44;94341.59;;;11.15;28.09
27958;BME280;15295;42.658;23.374;2023-03-12T16:48:49;94421.31;;;11.54;28.30
27958;BME280;15295;42.658;23.374;2023-03-12T16:53:55;94402.00;;;11.31;28.66
27958;BME280;15295;42.658;23.374;2023-03-12T17:14:47;94457.63;;;11.58;29.77
27958;BME280;15295;42.658;23.374;2023-03-12T17:17:45;94477.50;;;11.69;29.39
27958;BME280;15295;42.658;23.374;2023-03-12T17:22:57;94479.66;;;11.88;29.28
27958;BME280;15295;42.658;23.374;2023-03-12T17:25:26;94447.44;;;11.62;29.13
27958;BME280;15295;42.658;23.374;2023-03-12T17:27:54;94490.25;;;11.83;28.91
27958;BME280;15295;42.658;23.374;2023-03-12T17:30:22;94449.16;;;11.45;29.04
27958;BME280;15295;42.658;23.374;2023-03-12T17:32:50;94454.66;;;11.42;29.21
27958;BME280;15295;42.658;23.374;2023-03-12T17:35:17;94475.31;;;11.50;29.12
27958;BME280;15295;42.658;23.374;2023-03-12T17:37:45;94471.53;;;11.37;29.13
27958;BME280;15295;42.658;23.374;2023-03-12T17:40:13;94456.59;;;11.01;29.32
27958;BME280;15295;42.658;23.374;2023-03-12T17:45:23;94508.84;;;11.13;29.83
27958;BME280;15295;42.658;23.374;2023-03-12T17:47:49;94498.38;;;11.01;29.96
27958;BME280;15295;42.658;23.374;2023-03-12T17:50:21;94469.25;;;10.73;30.13
27958;BME280;15295;42.658;23.374;2023-03-12T17:53:19;94465.03;;;10.65;30.21
27958;BME280;15295;42.658;23.374;2023-03-12T17:56:20;94469.72;;;10.61;30.44
27958;BME280;15295;42.658;23.374;2023-03-12T17:59:02;94522.66;;;10.92;30.61
27958;BME280;15295;42.658;23.374;2023-03-12T18:01:34;94497.38;;;10.74;30.42
27958;BME280;15295;42.658;23.374;2023-03-12T18:04:00;94471.38;;;10.52;30.38
27958;BME280;15295;42.658;23.374;2023-03-12T18:06:54;94521.19;;;10.73;30.46
27958;BME280;15295;42.658;23.374;2023-03-12T18:09:32;94506.06;;;10.58;30.69
27958;BME280;15295;42.658;23.374;2023-03-12T18:22:18;94507.34;;;10.29;30.99
27958;BME280;15295;42.658;23.374;2023-03-12T18:24:47;94505.44;;;10.23;31.13
27958;BME280;15295;42.658;23.374;2023-03-12T18:27:21;94511.69;;;10.16;30.92
27958;BME280;15295;42.658;23.374;2023-03-12T19:03:51;94533.66;;;9.46;32.25
27958;BME280;15295;42.658;23.374;2023-03-12T19:26:22;94620.91;;;9.21;33.26
27958;BME280;15295;42.658;23.374;2023-03-12T19:28:52;94592.09;;;9.02;33.18
27958;BME280;15295;42.658;23.374;2023-03-12T19:31:17;94612.72;;;9.10;33.29
27958;BME280;15295;42.658;23.374;2023-03-12T19:33:43;94606.88;;;9.08;33.35
27958;BME280;15295;42.658;23.374;2023-03-12T19:36:09;94636.88;;;9.22;33.38
27958;BME280;15295;42.658;23.374;2023-03-12T19:38:38;94625.56;;;9.13;33.38
27958;BME280;15295;42.658;23.374;2023-03-12T19:41:12;94651.69;;;9.14;33.53
27958;BME280;15295;42.658;23.374;2023-03-12T19:43:39;94644.66;;;9.06;33.68
27958;BME280;15295;42.658;23.374;2023-03-12T19:46:05;94655.16;;;9.11;33.66
27958;BME280;15295;42.658;23.374;2023-03-12T19:48:31;94647.34;;;8.99;33.57
27958;BME280;15295;42.658;23.374;2023-03-12T19:51:04;94653.56;;;8.96;nan
27958;BME280;15295;42.658;23.374;2023-03-12T19:53:30;94669.94;;;9.03;33.82
27958;BME280;15295;42.658;23.374;2023-03-12T19:55:55;94667.63;;;9.02;33.73
27958;BME280;15295;42.658;23.374;2023-03-12T19:58:21;94653.16;;;8.87;33.50
27958;BME280;15295;42.658;23.374;2023-03-12T20:00:57;94676.16;;;8.93;33.51
27958;BME280;15295;42.658;23.374;2023-03-12T20:03:22;94678.44;;;8.88;33.73
27958;BME280;15295;42.658;23.374;2023-03-12T20:05:48;94667.94;;;8.86;33.77
27958;BME280;15295;42.658;23.374;2023-03-12T20:08:15;94672.22;;;8.80;33.59
27958;BME280;15295;42.658;23.374;2023-03-12T20:10:40;94686.97;;;8.79;34.00
27958;BME280;15295;42.658;23.374;2023-03-12T20:13:06;94694.00;;;8.80;33.73
27958;BME280;15295;42.658;23.374;2023-03-12T20:15:37;94702.59;;;8.86;33.64
27958;BME280;15295;42.658;23.374;2023-03-12T20:18:04;94670.56;;;8.62;34.00
27958;BME280;15295;42.658;23.374;2023-03-12T20:20:30;94684.59;;;8.67;34.02
27958;BME280;15295;42.658;23.374;2023-03-12T20:22:56;94701.38;;;8.76;34.06
27958;BME280;15295;42.658;23.374;2023-03-12T20:25:26;94697.88;;;8.72;33.99
27958;BME280;15295;42.658;23.374;2023-03-12T20:27:58;94708.38;;;8.77;34.11
27958;BME280;15295;42.658;23.374;2023-03-12T20:30:25;94700.94;;;8.67;34.08
27958;BME280;15295;42.658;23.374;2023-03-12T20:32:50;94696.63;;;8.59;34.29
27958;BME280;15295;42.658;23.374;2023-03-12T20:35:16;94691.53;;;8.54;34.36
27958;BME280;15295;42.658;23.374;2023-03-12T20:37:48;94683.72;;;8.49;34.45
27958;BME280;15295;42.658;23.374;2023-03-12T20:40:15;94704.00;;;8.59;34.35
27958;BME280;15295;42.658;23.374;2023-03-12T20:42:40;94706.75;;;8.59;34.36
27958;BME280;15295;42.658;23.374;2023-03-12T20:45:07;94683.69;;;8.45;34.46
27958;BME280;15295;42.658;23.374;2023-03-12T20:47:36;94718.81;;;8.61;34.44
27958;BME280;15295;42.658;23.374;2023-03-12T20:50:06;94658.69;;;8.26;34.38
27958;BME280;15295;42.658;23.374;2023-03-12T20:52:32;94682.50;;;8.36;34.42
27958;BME280;15295;42.658;23.374;2023-03-12T20:54:58;94698.09;;;8.42;34.27
27958;BME280;15295;42.658;23.374;2023-03-12T20:57:45;94723.47;;;8.57;34.60
27958;BME280;15295;42.658;23.374;2023-03-12T21:00:19;94697.25;;;8.35;34.68
27958;BME280;15295;42.658;23.374;2023-03-12T21:02:45;94685.56;;;8.27;34.57
27958;BME280;15295;42.658;23.374;2023-03-12T21:05:14;94724.22;;;8.50;34.61
27958;BME280;15295;42.658;23.374;2023-03-12T21:07:40;94730.44;;;8.51;34.72
27958;BME280;15295;42.658;23.374;2023-03-12T21:10:10;94720.97;;;8.34;34.95
27958;BME280;15295;42.658;23.374;2023-03-12T21:12:37;94696.75;;;8.19;35.00
27958;BME280;15295;42.658;23.374;2023-03-12T21:15:07;94692.78;;;8.13;34.96
27958;BME280;15295;42.658;23.374;2023-03-12T21:17:35;94701.78;;;8.17;35.01
27958;BME280;15295;42.658;23.374;2023-03-12T21:20:05;94700.16;;;8.09;35.08
27958;BME280;15295;42.658;23.374;2023-03-12T21:22:34;94739.59;;;8.25;35.20
27958;BME280;15295;42.658;23.374;2023-03-12T21:25:00;94717.66;;;8.08;35.25
27958;BME280;15295;42.658;23.374;2023-03-12T21:27:28;94720.00;;;8.09;35.28
27958;BME280;15295;42.658;23.374;2023-03-12T21:29:56;94710.97;;;7.98;35.47
27958;BME280;15295;42.658;23.374;2023-03-12T21:32:24;94713.34;;;8.00;35.33
27958;BME280;15295;42.658;23.374;2023-03-12T21:34:56;94724.22;;;8.00;35.55
27958;BME280;15295;42.658;23.374;2023-03-12T21:37:23;94719.09;;;7.91;35.59
27958;BME280;15295;42.658;23.374;2023-03-12T21:39:49;94751.53;;;8.14;35.47
27958;BME280;15295;42.658;23.374;2023-03-12T21:42:17;94727.63;;;7.90;35.76
27958;BME280;15295;42.658;23.374;2023-03-12T21:44:51;94756.09;;;8.03;35.78
27958;BME280;15295;42.658;23.374;2023-03-12T21:49:52;94753.44;;;8.10;35.90
27958;BME280;15295;42.658;23.374;2023-03-12T21:52:20;94677.25;;;7.59;35.72
27958;BME280;15295;42.658;23.374;2023-03-12T21:54:48;94693.97;;;7.64;35.78
27958;BME280;15295;42.658;23.374;2023-03-12T21:57:15;94702.22;;;7.71;35.77
27958;BME280;15295;42.658;23.374;2023-03-12T21:59:40;94742.81;;;7.94;35.77
27958;BME280;15295;42.658;23.374;2023-03-12T22:02:11;94747.94;;;8.03;35.94
27958;BME280;15295;42.658;23.374;2023-03-12T22:04:38;94757.69;;;8.04;35.96
27958;BME280;15295;42.658;23.374;2023-03-12T22:07:09;94756.16;;;8.10;35.69
27958;BME280;15295;42.658;23.374;2023-03-12T22:09:38;94709.66;;;7.78;35.69
27958;BME280;15295;42.658;23.374;2023-03-12T22:12:05;94683.81;;;7.58;35.68
27958;BME280;15295;42.658;23.374;2023-03-12T22:14:58;94750.63;;;7.99;35.75
27958;BME280;15295;42.658;23.374;2023-03-12T22:17:25;94717.41;;;7.76;35.69
27958;BME280;15295;42.658;23.374;2023-03-12T22:19:56;94739.59;;;7.82;35.84
27958;BME280;15295;42.658;23.374;2023-03-12T22:22:24;94750.97;;;7.91;35.91
27958;BME280;15295;42.658;23.374;2023-03-12T22:24:49;94751.44;;;8.00;35.87
27958;BME280;15295;42.658;23.374;2023-03-12T22:27:19;94729.06;;;7.76;35.74
27958;BME280;15295;42.658;23.374;2023-03-12T22:29:47;94711.09;;;7.65;35.75
27958;BME280;15295;42.658;23.374;2023-03-12T22:32:28;94743.53;;;7.88;35.96
27958;BME280;15295;42.658;23.374;2023-03-12T22:34:54;94725.50;;;7.69;35.86
27958;BME280;15295;42.658;23.374;2023-03-12T22:45:01;94737.56;;;7.71;36.29
27958;BME280;15295;42.658;23.374;2023-03-12T22:47:27;94732.13;;;7.71;36.23
27958;BME280;15295;42.658;23.374;2023-03-12T22:49:53;94760.25;;;7.90;36.04
27958;BME280;15295;42.658;23.374;2023-03-12T22:52:22;94723.13;;;7.64;36.13
27958;BME280;15295;42.658;23.374;2023-03-12T22:54:50;94735.56;;;7.65;35.99
27958;BME280;15295;42.658;23.374;2023-03-12T22:57:15;94769.94;;;7.87;36.14
27958;BME280;15295;42.658;23.374;2023-03-12T22:59:41;94751.50;;;7.66;36.26
27958;BME280;15295;42.658;23.374;2023-03-12T23:02:06;94731.63;;;7.59;36.20
27958;BME280;15295;42.658;23.374;2023-03-12T23:04:33;94764.50;;;7.87;36.07
27958;BME280;15295;42.658;23.374;2023-03-12T23:06:58;94766.06;;;7.85;36.03
27958;BME280;15295;42.658;23.374;2023-03-12T23:09:25;94766.88;;;7.89;36.26
27958;BME280;15295;42.658;23.374;2023-03-12T23:11:53;94746.56;;;7.79;36.24
27958;BME280;15295;42.658;23.374;2023-03-12T23:14:19;94727.34;;;7.61;36.01
27958;BME280;15295;42.658;23.374;2023-03-12T23:16:45;94766.41;;;7.79;36.06
27958;BME280;15295;42.658;23.374;2023-03-12T23:19:14;94753.81;;;7.64;36.44
27958;BME280;15295;42.658;23.374;2023-03-12T23:21:40;94765.59;;;7.79;36.06
27958;BME280;15295;42.658;23.374;2023-03-12T23:24:07;94797.63;;;7.93;36.13
27958;BME280;15295;42.658;23.374;2023-03-12T23:26:33;94799.16;;;7.94;36.13
27958;BME280;15295;42.658;23.374;2023-03-12T23:29:01;94780.00;;;7.79;36.06
27958;BME280;15295;42.658;23.374;2023-03-12T23:31:28;94807.03;;;8.02;35.95
27958;BME280;15295;42.658;23.374;2023-03-12T23:33:58;94779.63;;;7.81;36.01
27958;BME280;15295;42.658;23.374;2023-03-12T23:36:24;94792.09;;;7.86;36.17
27958;BME280;15295;42.658;23.374;2023-03-12T23:38:52;94796.84;;;7.96;36.00
27958;BME280;15295;42.658;23.374;2023-03-12T23:41:23;94787.44;;;7.86;35.90
27958;BME280;15295;42.658;23.374;2023-03-12T23:43:49;94790.16;;;7.86;35.89
27958;BME280;15295;42.658;23.374;2023-03-12T23:46:15;94803.47;;;7.95;36.12
27958;BME280;15295;42.658;23.374;2023-03-12T23:48:42;94756.94;;;7.66;36.23
27958;BME280;15295;42.658;23.374;2023-03-12T23:51:27;94742.88;;;7.57;36.40
27958;BME280;15295;42.658;23.374;2023-03-12T23:54:04;94798.34;;;7.86;36.11
27958;BME280;15295;42.658;23.374;2023-03-12T23:56:35;94816.38;;;8.01;36.26
27958;BME280;15295;42.658;23.374;2023-03-12T23:59:04;94796.09;;;7.95;36.12
